Time;durP1;ratioP1;P1;durP2;ratioP2;P2;SDS_P1;SDS_P2;PMS_P1;PMS_P2;Temp;Humidity;BMP_temperature;BMP_pressure;BME280_temperature;BME280_humidity;BME280_pressure;Samples;Min_cycle;Max_cycle;Signal;HPM_P1;HPM_P2
2022/09/24 00:01:27;;;;;;;5.30;4.80;;;14.00;99.90;;;;;;5072258;28;20376;-71
2022/09/24 00:04:02;;;;;;;5.60;5.10;;;14.00;99.90;;;;;;5080632;28;20419;-71
2022/09/24 00:06:29;;;;;;;4.70;4.40;;;14.00;99.90;;;;;;5087096;28;20411;-71
2022/09/24 00:08:56;;;;;;;5.10;4.70;;;14.00;99.90;;;;;;5085549;28;20404;-71
2022/09/24 00:11:24;;;;;;;5.80;5.10;;;14.00;99.90;;;;;;5097650;28;20377;-71
2022/09/24 00:13:51;;;;;;;6.57;5.15;;;14.00;99.90;;;;;;5113056;28;20412;-71
2022/09/24 00:16:18;;;;;;;5.10;4.70;;;14.00;99.90;;;;;;5113306;28;20464;-72
2022/09/24 00:18:44;;;;;;;6.43;5.10;;;14.00;99.90;;;;;;5119658;28;20408;-71
2022/09/24 00:21:32;;;;;;;5.10;4.60;;;13.90;99.90;;;;;;5123325;28;20723;-71
2022/09/24 00:24:02;;;;;;;6.10;5.15;;;13.80;99.90;;;;;;5110184;28;20400;-71
2022/09/24 00:29:16;;;;;;;5.20;4.70;;;13.90;99.90;;;;;;5117413;28;20418;-72
2022/09/24 00:31:41;;;;;;;6.43;4.32;;;13.90;99.90;;;;;;5125597;28;20398;-71
2022/09/24 00:34:07;;;;;;;5.05;4.55;;;13.90;99.90;;;;;;5125483;28;20404;-71
2022/09/24 00:36:33;;;;;;;5.30;4.90;;;13.90;99.90;;;;;;5122913;28;20387;-71
2022/09/24 00:38:59;;;;;;;5.47;4.97;;;13.80;99.90;;;;;;5123278;28;20376;-71
2022/09/24 00:41:29;;;;;;;5.13;4.63;;;13.90;99.90;;;;;;5121589;28;20449;-72
2022/09/24 00:43:55;;;;;;;5.47;5.05;;;13.90;99.90;;;;;;5113412;28;20388;-71
2022/09/24 00:46:34;;;;;;;5.68;5.18;;;13.90;99.90;;;;;;5120051;28;20388;-72
2022/09/24 00:49:04;;;;;;;5.17;4.77;;;13.80;99.90;;;;;;5121615;28;20391;-72
2022/09/24 00:51:32;;;;;;;5.55;5.05;;;13.90;99.90;;;;;;5118683;28;20380;-71
2022/09/24 00:54:05;;;;;;;5.78;4.63;;;14.00;99.90;;;;;;5110858;28;20392;-71
2022/09/24 00:56:35;;;;;;;5.40;4.82;;;14.00;99.90;;;;;;5110779;28;20430;-71
2022/09/24 00:59:02;;;;;;;5.43;4.93;;;14.00;99.90;;;;;;5110707;28;20375;-71
2022/09/24 01:01:28;;;;;;;5.50;5.00;;;13.90;99.90;;;;;;5110844;28;20382;-71
2022/09/24 01:03:56;;;;;;;5.97;4.60;;;13.90;99.90;;;;;;5110580;28;20417;-72
2022/09/24 01:06:22;;;;;;;6.35;4.88;;;13.90;99.90;;;;;;5110619;28;20380;-72
2022/09/24 01:08:48;;;;;;;5.93;5.10;;;13.90;99.90;;;;;;5110418;28;20925;-71
2022/09/24 01:11:35;;;;;;;5.63;5.13;;;13.80;99.90;;;;;;5110653;28;20412;-71
2022/09/24 01:14:12;;;;;;;5.72;5.13;;;13.80;99.90;;;;;;5110166;28;20386;-71
2022/09/24 01:16:44;;;;;;;5.32;4.82;;;13.80;99.90;;;;;;5092401;28;20455;-70
2022/09/24 01:19:30;;;;;;;5.70;5.20;;;13.80;99.90;;;;;;5110554;28;20514;-71
2022/09/24 01:22:10;;;;;;;5.72;5.22;;;13.70;99.90;;;;;;5110485;28;20410;-71
2022/09/24 01:25:04;;;;;;;5.57;5.07;;;13.60;99.90;;;;;;5051670;28;20489;-71
2022/09/24 01:27:37;;;;;;;5.90;5.30;;;13.70;99.90;;;;;;5069878;28;20398;-71
2022/09/24 01:30:09;;;;;;;6.00;5.45;;;13.70;99.90;;;;;;5069836;28;20468;-71
2022/09/24 01:32:54;;;;;;;6.18;5.22;;;13.70;99.90;;;;;;5069497;28;20376;-70
2022/09/24 01:35:30;;;;;;;6.07;5.57;;;13.60;99.90;;;;;;5069816;28;20371;-71
2022/09/24 01:38:02;;;;;;;5.97;5.38;;;13.60;99.90;;;;;;5089505;28;20743;-71
2022/09/24 01:40:29;;;;;;;6.00;5.50;;;13.60;99.90;;;;;;5104710;28;20469;-71
2022/09/24 01:42:57;;;;;;;5.78;5.28;;;13.60;99.90;;;;;;5104988;28;20791;-71
2022/09/24 01:45:25;;;;;;;5.75;5.25;;;13.70;99.90;;;;;;5104578;28;20382;-71
2022/09/24 01:47:51;;;;;;;5.77;5.17;;;13.70;99.90;;;;;;5101651;28;20395;-71
2022/09/24 01:50:18;;;;;;;5.30;4.80;;;13.80;99.90;;;;;;5110385;28;20364;-71
2022/09/24 01:52:58;;;;;;;6.20;5.60;;;13.80;99.90;;;;;;5127856;22;20438;-74
2022/09/24 01:55:27;;;;;;;5.72;5.22;;;13.80;99.90;;;;;;5092694;28;20394;-74
2022/09/24 01:58:02;;;;;;;5.90;5.32;;;13.80;99.90;;;;;;5093546;28;20370;-74
2022/09/24 02:00:28;;;;;;;7.63;5.93;;;13.70;99.90;;;;;;5093910;28;20790;-74
2022/09/24 02:03:12;;;;;;;6.43;5.82;;;13.60;99.90;;;;;;5091968;28;20386;-73
2022/09/24 02:05:46;;;;;;;8.25;5.85;;;13.50;99.90;;;;;;5093810;28;20832;-74
2022/09/24 02:08:19;;;;;;;6.07;5.47;;;13.50;99.90;;;;;;5093476;28;20397;-74
2022/09/24 02:10:50;;;;;;;6.78;5.50;;;13.40;99.90;;;;;;5093264;28;20401;-74
2022/09/24 02:13:19;;;;;;;6.93;6.22;;;13.50;99.90;;;;;;5097976;28;20483;-74
2022/09/24 02:15:49;;;;;;;6.43;5.88;;;13.50;99.90;;;;;;5105358;28;20387;-74
2022/09/24 02:18:18;;;;;;;7.10;6.35;;;13.60;99.90;;;;;;5103119;28;20443;-73
2022/09/24 02:20:46;;;;;;;6.22;5.63;;;13.60;99.90;;;;;;5114232;27;20388;-73
2022/09/24 02:23:14;;;;;;;6.33;5.73;;;13.50;99.90;;;;;;5104927;28;20871;-73
2022/09/24 02:25:56;;;;;;;6.40;5.90;;;13.50;99.90;;;;;;5101853;28;20451;-73
2022/09/24 02:28:22;;;;;;;6.40;5.80;;;13.50;99.90;;;;;;5112502;28;20396;-73
2022/09/24 02:30:56;;;;;;;6.50;6.00;;;13.60;99.90;;;;;;5113867;28;20885;-73
2022/09/24 02:36:08;;;;;;;6.73;5.90;;;13.50;99.90;;;;;;5096867;28;20385;-73
2022/09/24 02:38:34;;;;;;;7.38;6.65;;;13.40;99.90;;;;;;5105201;28;20494;-73
2022/09/24 02:41:00;;;;;;;7.47;6.30;;;13.40;99.90;;;;;;5113775;28;20941;-73
2022/09/24 02:43:25;;;;;;;7.20;6.50;;;13.50;99.90;;;;;;5113195;28;20484;-73
2022/09/24 02:45:51;;;;;;;7.10;6.40;;;13.50;99.90;;;;;;5113457;28;20380;-73
2022/09/24 02:48:16;;;;;;;7.57;6.50;;;13.50;99.90;;;;;;5113375;28;20396;-73
2022/09/24 02:50:42;;;;;;;7.15;6.45;;;13.60;99.90;;;;;;5113257;28;20380;-74
2022/09/24 02:53:07;;;;;;;7.10;6.00;;;13.60;99.90;;;;;;5112735;28;20475;-73
2022/09/24 02:55:33;;;;;;;6.40;5.90;;;13.70;99.90;;;;;;5113390;28;20416;-73
2022/09/24 02:57:58;;;;;;;6.20;5.60;;;13.70;99.90;;;;;;5111790;28;20441;-73
2022/09/24 03:00:24;;;;;;;6.07;5.57;;;13.70;99.90;;;;;;5111656;28;20434;-73
2022/09/24 03:02:49;;;;;;;6.70;6.10;;;13.70;99.90;;;;;;5112771;28;20537;-74
2022/09/24 03:05:17;;;;;;;6.90;6.00;;;13.60;99.90;;;;;;5111691;28;20454;-73
2022/09/24 03:07:43;;;;;;;5.57;4.50;;;13.60;99.90;;;;;;5112824;28;20384;-73
2022/09/24 03:10:09;;;;;;;5.97;5.47;;;13.70;99.90;;;;;;5112597;28;20536;-73
2022/09/24 03:12:34;;;;;;;5.90;5.30;;;13.70;99.90;;;;;;5112401;28;20385;-73
2022/09/24 03:15:00;;;;;;;6.43;5.82;;;13.60;99.90;;;;;;5112605;28;20412;-73
2022/09/24 03:17:27;;;;;;;7.97;5.27;;;13.60;99.90;;;;;;5112660;28;20373;-73
2022/09/24 03:19:52;;;;;;;6.03;5.43;;;13.60;99.90;;;;;;5112401;28;20449;-73
2022/09/24 03:22:18;;;;;;;6.20;5.60;;;13.60;99.90;;;;;;5111276;28;20866;-73
2022/09/24 03:24:44;;;;;;;5.83;5.33;;;13.60;99.90;;;;;;5091821;28;20518;-73
2022/09/24 03:27:10;;;;;;;5.60;5.00;;;13.60;99.90;;;;;;5092058;28;20382;-73
2022/09/24 03:32:20;;;;;;;5.60;4.72;;;13.50;99.90;;;;;;5092073;28;20431;-73
2022/09/24 03:34:46;;;;;;;5.00;4.60;;;13.60;99.90;;;;;;5091921;28;20382;-73
2022/09/24 03:37:11;;;;;;;5.27;4.77;;;13.60;99.90;;;;;;5086824;28;20399;-73
2022/09/24 03:39:37;;;;;;;5.50;4.60;;;13.60;99.90;;;;;;5103831;28;20399;-73
2022/09/24 03:42:02;;;;;;;7.65;5.10;;;13.70;99.90;;;;;;5103771;28;20388;-73
2022/09/24 03:44:28;;;;;;;4.90;4.47;;;13.60;99.90;;;;;;5100105;28;20385;-72
2022/09/24 03:46:53;;;;;;;5.70;5.00;;;13.60;99.90;;;;;;5098241;28;20896;-71
2022/09/24 03:49:19;;;;;;;6.10;5.60;;;13.60;99.90;;;;;;5103610;28;20436;-71
2022/09/24 03:51:44;;;;;;;5.95;5.10;;;13.60;99.90;;;;;;5112350;28;20376;-71
2022/09/24 03:54:10;;;;;;;5.40;4.90;;;13.60;99.90;;;;;;5111715;28;20469;-71
2022/09/24 03:56:36;;;;;;;6.80;5.30;;;13.60;99.90;;;;;;5112188;28;20380;-71
2022/09/24 03:59:01;;;;;;;6.10;5.50;;;13.50;99.90;;;;;;5111914;28;20745;-71
2022/09/24 04:01:27;;;;;;;5.30;4.80;;;13.50;99.90;;;;;;5112147;28;20854;-72
2022/09/24 04:03:53;;;;;;;5.20;4.70;;;13.50;99.90;;;;;;5111540;28;20445;-71
2022/09/24 04:06:18;;;;;;;4.33;4.03;;;13.40;99.90;;;;;;5112030;28;20850;-71
2022/09/24 04:08:44;;;;;;;4.00;3.70;;;13.40;99.90;;;;;;5111790;28;20392;-71
2022/09/24 04:11:10;;;;;;;5.23;4.10;;;13.30;99.90;;;;;;5090234;28;20394;-70
2022/09/24 04:13:35;;;;;;;4.50;4.10;;;13.40;99.90;;;;;;5096948;28;20381;-71
2022/09/24 04:16:02;;;;;;;5.68;4.13;;;13.30;99.90;;;;;;5098496;28;20385;-71
2022/09/24 04:18:28;;;;;;;4.75;4.28;;;13.40;99.90;;;;;;5102878;28;20441;-71
2022/09/24 04:21:01;;;;;;;3.92;3.63;;;13.50;99.90;;;;;;5111596;28;20384;-72
2022/09/24 04:23:27;;;;;;;3.72;3.42;;;13.40;99.90;;;;;;5100271;28;20386;-72
2022/09/24 04:25:53;;;;;;;4.57;3.92;;;13.40;99.90;;;;;;5091056;28;20721;-72
2022/09/24 04:28:18;;;;;;;4.60;3.83;;;13.40;99.90;;;;;;5099866;28;21024;-71
2022/09/24 04:30:44;;;;;;;4.27;3.90;;;13.40;99.90;;;;;;5104361;28;20412;-71
2022/09/24 04:33:10;;;;;;;3.78;3.47;;;13.40;99.90;;;;;;5088582;28;20414;-71
2022/09/24 04:35:35;;;;;;;4.80;3.60;;;13.30;99.90;;;;;;5090823;28;20386;-71
2022/09/24 04:38:05;;;;;;;4.57;4.20;;;13.30;99.90;;;;;;5089797;28;20382;-72
2022/09/24 04:40:31;;;;;;;4.30;3.90;;;13.40;99.90;;;;;;5090845;28;20378;-72
2022/09/24 04:42:56;;;;;;;3.60;3.30;;;13.40;99.90;;;;;;5088995;28;20389;-72
2022/09/24 04:45:23;;;;;;;3.40;3.20;;;13.50;99.90;;;;;;5090987;28;20378;-73
2022/09/24 04:47:54;;;;;;;3.30;3.10;;;13.50;99.90;;;;;;5090438;28;20408;-72
2022/09/24 04:50:21;;;;;;;4.00;3.60;;;13.50;99.90;;;;;;5090894;28;20832;-72
2022/09/24 04:52:47;;;;;;;4.68;3.53;;;13.50;99.90;;;;;;5090228;28;20382;-73
2022/09/24 04:55:13;;;;;;;3.80;3.50;;;13.50;99.90;;;;;;5090746;28;20389;-72
2022/09/24 04:57:40;;;;;;;4.13;3.63;;;13.40;99.90;;;;;;5090768;28;20386;-73
2022/09/24 05:00:08;;;;;;;3.42;3.13;;;13.40;99.90;;;;;;5090159;28;20855;-72
2022/09/24 05:02:34;;;;;;;4.50;4.10;;;13.40;99.90;;;;;;5087601;28;20378;-73
2022/09/24 05:04:59;;;;;;;3.83;3.42;;;13.50;99.90;;;;;;5090315;28;20898;-73
2022/09/24 05:07:25;;;;;;;4.63;4.22;;;13.40;99.90;;;;;;5090321;28;20791;-72
2022/09/24 05:09:51;;;;;;;4.53;4.10;;;13.50;99.90;;;;;;5090420;28;20406;-72
2022/09/24 05:12:17;;;;;;;4.00;3.70;;;13.40;99.90;;;;;;5090337;28;20413;-73
2022/09/24 05:14:43;;;;;;;4.70;4.30;;;13.40;99.90;;;;;;5088938;28;20378;-72
2022/09/24 05:17:08;;;;;;;4.25;3.85;;;13.40;99.90;;;;;;5086346;28;20400;-72
2022/09/24 05:19:34;;;;;;;5.50;4.20;;;13.40;99.90;;;;;;5090269;28;20382;-72
2022/09/24 05:21:59;;;;;;;4.67;4.27;;;13.40;99.90;;;;;;5084083;28;20401;-72
2022/09/24 05:24:25;;;;;;;4.10;3.70;;;13.50;99.90;;;;;;5089904;28;20428;-72
2022/09/24 05:27:09;;;;;;;3.70;3.40;;;13.40;99.90;;;;;;5090276;28;20394;-72
2022/09/24 05:29:42;;;;;;;3.47;3.20;;;13.50;99.90;;;;;;5093913;28;20397;-72
2022/09/24 05:32:13;;;;;;;3.30;3.00;;;13.60;99.90;;;;;;5094194;28;20386;-72
2022/09/24 05:34:40;;;;;;;3.88;3.58;;;13.60;99.90;;;;;;5094155;28;20880;-72
2022/09/24 05:37:05;;;;;;;4.20;3.80;;;13.60;99.90;;;;;;5094425;28;20459;-72
2022/09/24 05:39:31;;;;;;;3.80;3.22;;;13.60;99.90;;;;;;5094418;28;20386;-72
2022/09/24 05:41:57;;;;;;;3.50;2.58;;;13.50;99.90;;;;;;5087883;28;20394;-72
2022/09/24 05:44:23;;;;;;;3.10;2.80;;;13.80;99.90;;;;;;5093766;28;20386;-72
2022/09/24 05:46:49;;;;;;;3.40;3.10;;;13.90;99.90;;;;;;5093443;28;20464;-72
2022/09/24 05:49:15;;;;;;;2.30;2.10;;;13.90;99.90;;;;;;5094225;28;20766;-72
2022/09/24 05:51:41;;;;;;;2.70;2.50;;;14.00;99.90;;;;;;5081750;28;20379;-73
2022/09/24 05:54:07;;;;;;;3.40;3.07;;;13.90;99.90;;;;;;5073468;28;20885;-72
2022/09/24 05:56:32;;;;;;;3.00;2.70;;;14.00;99.90;;;;;;5073776;28;20854;-72
2022/09/24 05:58:59;;;;;;;3.67;3.00;;;14.10;99.90;;;;;;5073589;28;20383;-72
2022/09/24 06:01:28;;;;;;;2.95;2.75;;;13.80;99.90;;;;;;5080338;28;20393;-72
2022/09/24 06:03:57;;;;;;;3.50;3.20;;;13.80;99.90;;;;;;5109206;28;20398;-72
2022/09/24 06:06:26;;;;;;;3.80;3.40;;;13.70;99.90;;;;;;5093721;28;20515;-71
2022/09/24 06:08:52;;;;;;;3.95;3.50;;;13.70;99.90;;;;;;5093788;28;20450;-72
2022/09/24 06:11:21;;;;;;;4.10;3.80;;;13.60;99.90;;;;;;5092320;28;20385;-72
2022/09/24 06:13:50;;;;;;;4.00;3.70;;;13.60;99.90;;;;;;5092898;28;20447;-72
2022/09/24 06:16:16;;;;;;;4.10;3.50;;;13.70;99.90;;;;;;5104124;28;20479;-72
2022/09/24 06:18:43;;;;;;;4.30;3.80;;;13.70;99.90;;;;;;5102700;28;20479;-72
2022/09/24 06:21:13;;;;;;;6.28;4.00;;;13.70;99.90;;;;;;5091065;28;20437;-72
2022/09/24 06:23:41;;;;;;;4.47;3.85;;;13.70;99.90;;;;;;5088345;28;20903;-73
2022/09/24 06:26:10;;;;;;;3.57;3.27;;;13.60;99.90;;;;;;5088266;28;20467;-73
2022/09/24 06:28:36;;;;;;;5.43;3.40;;;13.70;99.90;;;;;;5105434;27;20414;-73
2022/09/24 06:31:03;;;;;;;3.70;3.40;;;13.70;99.90;;;;;;5089448;28;20902;-73
2022/09/24 06:33:29;;;;;;;4.15;3.75;;;13.70;99.90;;;;;;5087925;28;20402;-73
2022/09/24 06:35:58;;;;;;;4.00;3.60;;;13.70;99.90;;;;;;5081347;28;20430;-73
2022/09/24 06:38:23;;;;;;;4.20;3.80;;;13.70;99.90;;;;;;5084893;28;20459;-72
2022/09/24 06:40:49;;;;;;;3.70;3.40;;;13.80;99.90;;;;;;5091295;28;20406;-73
2022/09/24 06:43:16;;;;;;;4.10;3.70;;;13.90;99.90;;;;;;5095987;28;20825;-72
2022/09/24 06:45:43;;;;;;;3.70;3.30;;;13.80;99.90;;;;;;5088568;28;20485;-73
2022/09/24 06:48:11;;;;;;;4.68;3.20;;;13.80;99.90;;;;;;5092521;28;20406;-72
2022/09/24 06:50:42;;;;;;;4.45;3.10;;;13.80;99.90;;;;;;5093787;28;20390;-73
2022/09/24 06:53:09;;;;;;;3.85;3.30;;;13.90;99.90;;;;;;5086105;28;20403;-73
2022/09/24 06:55:36;;;;;;;5.13;3.90;;;13.90;99.90;;;;;;5072289;28;20394;-73
2022/09/24 06:58:04;;;;;;;4.70;4.20;;;13.90;99.90;;;;;;5078365;28;20402;-72
2022/09/24 07:00:29;;;;;;;3.80;3.50;;;13.90;99.90;;;;;;5100797;28;20404;-72
2022/09/24 07:02:55;;;;;;;3.88;3.50;;;13.90;99.90;;;;;;5096949;28;20407;-73
2022/09/24 07:05:20;;;;;;;4.88;4.47;;;14.00;99.90;;;;;;5108567;28;20455;-72
2022/09/24 07:07:46;;;;;;;4.50;4.10;;;14.10;99.90;;;;;;5099005;28;20443;-73
2022/09/24 07:10:12;;;;;;;4.20;3.80;;;14.10;99.90;;;;;;5095159;28;20432;-73
2022/09/24 07:12:40;;;;;;;3.75;3.45;;;14.20;99.90;;;;;;5097116;28;20463;-73
2022/09/24 07:15:07;;;;;;;3.97;3.50;;;14.10;99.90;;;;;;5091452;28;20853;-73
2022/09/24 07:17:32;;;;;;;4.10;3.70;;;14.00;99.90;;;;;;5093734;28;20402;-72
2022/09/24 07:19:58;;;;;;;3.95;3.65;;;14.00;99.90;;;;;;5094602;28;20414;-72
2022/09/24 07:22:23;;;;;;;3.90;3.50;;;14.10;99.90;;;;;;5091219;28;20434;-72
2022/09/24 07:24:49;;;;;;;3.50;3.20;;;14.20;99.90;;;;;;5099502;28;20929;-72
2022/09/24 07:27:15;;;;;;;4.50;3.42;;;14.20;99.90;;;;;;5101404;28;20505;-72
2022/09/24 07:29:40;;;;;;;3.70;3.38;;;14.30;99.90;;;;;;5100055;27;20483;-72
2022/09/24 07:32:06;;;;;;;4.15;3.78;;;14.30;99.90;;;;;;5099429;28;20969;-73
2022/09/24 07:34:32;;;;;;;3.90;3.60;;;14.30;99.90;;;;;;5099355;28;20401;-73
2022/09/24 07:36:58;;;;;;;4.38;3.97;;;14.40;99.90;;;;;;5098575;28;20406;-73
2022/09/24 07:39:24;;;;;;;4.80;3.80;;;14.40;99.90;;;;;;5096050;28;20443;-73
2022/09/24 07:41:51;;;;;;;4.30;3.70;;;14.50;99.90;;;;;;5100186;28;20409;-73
2022/09/24 07:44:19;;;;;;;4.40;4.00;;;14.60;99.90;;;;;;5095761;28;20883;-72
2022/09/24 07:46:47;;;;;;;3.78;3.40;;;14.50;99.90;;;;;;5096807;28;20948;-73
2022/09/24 07:49:12;;;;;;;4.60;4.20;;;14.50;99.90;;;;;;5097616;28;20402;-72
2022/09/24 07:51:38;;;;;;;4.30;3.90;;;14.60;99.90;;;;;;5098694;28;20406;-73
2022/09/24 07:54:04;;;;;;;4.33;3.93;;;14.70;99.90;;;;;;5093975;22;20553;-70
2022/09/24 07:56:31;;;;;;;4.40;3.90;;;14.70;99.90;;;;;;5033413;28;20382;-71
2022/09/24 07:58:56;;;;;;;4.63;4.13;;;14.70;99.90;;;;;;5043395;28;20385;-71
2022/09/24 08:01:23;;;;;;;4.20;3.90;;;14.70;99.90;;;;;;5048805;28;20401;-71
2022/09/24 08:03:50;;;;;;;4.50;4.20;;;14.70;99.90;;;;;;5031204;28;20379;-71
2022/09/24 08:06:16;;;;;;;4.20;3.80;;;14.80;99.90;;;;;;5046719;28;20462;-71
2022/09/24 08:08:42;;;;;;;3.77;3.30;;;14.70;99.90;;;;;;5044451;28;20401;-72
2022/09/24 08:11:11;;;;;;;4.10;3.80;;;14.70;99.90;;;;;;5048838;28;20513;-71
2022/09/24 08:13:37;;;;;;;4.05;3.70;;;14.80;99.90;;;;;;5048402;28;20443;-71
2022/09/24 08:16:03;;;;;;;4.30;3.85;;;14.90;99.90;;;;;;5050248;28;20891;-71
2022/09/24 08:18:30;;;;;;;4.68;4.28;;;14.90;99.90;;;;;;5046577;28;20415;-72
2022/09/24 08:20:56;;;;;;;5.10;4.60;;;14.90;99.90;;;;;;5050885;28;20389;-72
2022/09/24 08:23:22;;;;;;;4.50;4.10;;;14.90;99.90;;;;;;5047013;28;20516;-71
2022/09/24 08:25:47;;;;;;;4.10;3.80;;;14.80;99.90;;;;;;5049385;28;20413;-71
2022/09/24 08:28:15;;;;;;;3.87;3.50;;;14.70;99.90;;;;;;5049988;28;20385;-72
2022/09/24 08:30:42;;;;;;;4.43;4.03;;;14.70;99.90;;;;;;5050613;28;20395;-71
2022/09/24 08:33:09;;;;;;;3.88;3.58;;;14.90;99.90;;;;;;5032279;28;20520;-71
2022/09/24 08:35:35;;;;;;;3.85;3.50;;;14.90;99.90;;;;;;5048853;28;20390;-71
2022/09/24 08:38:02;;;;;;;3.92;3.63;;;14.90;99.90;;;;;;5050785;28;20480;-72
2022/09/24 08:40:33;;;;;;;3.57;3.27;;;15.00;99.90;;;;;;5048117;28;20401;-72
2022/09/24 08:43:21;;;;;;;4.00;3.60;;;14.90;99.90;;;;;;5041242;28;20893;-72
2022/09/24 08:48:46;;;;;;;4.47;4.07;;;15.00;99.90;;;;;;5044771;28;20416;-72
2022/09/24 08:51:19;;;;;;;3.78;3.47;;;15.20;99.90;;;;;;5044492;28;20761;-70
2022/09/24 08:54:05;;;;;;;3.97;3.58;;;15.10;99.90;;;;;;5043526;28;20894;-71
2022/09/24 08:56:37;;;;;;;5.65;3.90;;;15.10;99.90;;;;;;5039375;28;20398;-72
2022/09/24 08:59:26;;;;;;;4.40;4.00;;;15.20;99.90;;;;;;5052917;28;20393;-71
2022/09/24 09:02:09;;;;;;;4.70;4.20;;;15.30;99.90;;;;;;5041846;28;20463;-70
2022/09/24 09:04:52;;;;;;;3.65;3.30;;;15.50;99.90;;;;;;5049545;28;20388;-71
2022/09/24 09:07:23;;;;;;;5.75;3.10;;;15.60;99.90;;;;;;5050529;28;20439;-72
2022/09/24 09:09:59;;;;;;;5.38;4.85;;;15.80;99.90;;;;;;5045773;28;20401;-72
2022/09/24 09:12:43;;;;;;;2.50;2.00;;;16.00;99.90;;;;;;5049437;28;20374;-71
2022/09/24 09:15:20;;;;;;;2.20;1.90;;;16.20;99.90;;;;;;5044743;28;20380;-72
2022/09/24 09:18:12;;;;;;;1.80;1.70;;;16.30;99.90;;;;;;5039328;28;20401;-72
2022/09/24 09:20:42;;;;;;;1.85;1.75;;;16.50;99.90;;;;;;5033983;28;20393;-72
2022/09/24 09:23:29;;;;;;;2.70;2.00;;;16.60;99.90;;;;;;5050561;28;20428;-71
2022/09/24 09:25:58;;;;;;;1.92;1.70;;;16.70;99.90;;;;;;5051079;28;20426;-72
2022/09/24 09:28:28;;;;;;;2.10;1.90;;;16.60;99.90;;;;;;5049444;28;20405;-71
2022/09/24 09:31:05;;;;;;;3.10;1.80;;;16.40;99.90;;;;;;5054184;28;20471;-71
2022/09/24 09:33:58;;;;;;;2.80;1.90;;;16.50;99.90;;;;;;5053742;28;20385;-71
2022/09/24 09:36:50;;;;;;;2.00;1.80;;;16.50;99.90;;;;;;5048786;28;20381;-72
2022/09/24 09:39:21;;;;;;;2.10;1.90;;;16.40;99.90;;;;;;5052816;28;20854;-72
2022/09/24 09:42:06;;;;;;;2.13;1.60;;;16.50;99.90;;;;;;5049425;28;20385;-71
2022/09/24 09:44:40;;;;;;;2.03;1.83;;;16.50;99.90;;;;;;5048870;28;20397;-71
2022/09/24 09:47:36;;;;;;;1.98;1.75;;;16.60;99.90;;;;;;5046500;28;20413;-71
2022/09/24 09:50:11;;;;;;;1.80;1.70;;;16.60;99.90;;;;;;5050431;28;20431;-71
2022/09/24 09:52:38;;;;;;;2.10;1.70;;;16.60;99.90;;;;;;5055137;28;20387;-72
2022/09/24 09:55:05;;;;;;;2.28;2.05;;;16.80;99.90;;;;;;5051292;28;20416;-72
2022/09/24 09:57:34;;;;;;;3.40;1.90;;;17.00;99.90;;;;;;5029043;28;20411;-71
2022/09/24 10:00:01;;;;;;;2.08;1.88;;;17.10;99.90;;;;;;5045865;28;20860;-71
2022/09/24 10:02:30;;;;;;;2.70;2.10;;;17.10;99.90;;;;;;5048711;28;21101;-70
2022/09/24 10:05:01;;;;;;;2.05;1.85;;;17.10;99.90;;;;;;5040754;28;20415;-71
2022/09/24 10:07:27;;;;;;;2.30;2.00;;;17.10;99.90;;;;;;5046860;28;20405;-71
2022/09/24 10:10:23;;;;;;;1.67;1.58;;;16.90;99.90;;;;;;5049692;28;20406;-72
2022/09/24 10:13:07;;;;;;;1.80;1.70;;;16.80;99.90;;;;;;5017817;28;20432;-71
2022/09/24 10:15:38;;;;;;;1.90;1.70;;;16.80;99.90;;;;;;5073055;28;20372;-72
2022/09/24 10:18:03;;;;;;;2.03;1.80;;;16.80;99.90;;;;;;5073965;28;20753;-71
2022/09/24 10:20:33;;;;;;;2.70;2.15;;;16.70;99.90;;;;;;5072930;28;20399;-71
2022/09/24 10:23:03;;;;;;;2.23;1.80;;;16.80;99.90;;;;;;5047819;28;20414;-71
2022/09/24 10:25:31;;;;;;;2.95;2.03;;;16.80;99.90;;;;;;5046082;28;20740;-71
2022/09/24 10:31:33;;;;;;;1.67;1.50;;;16.60;99.90;;;;;;5051382;28;20414;-71
2022/09/24 10:33:59;;;;;;;2.22;2.03;;;16.50;99.90;;;;;;5049713;28;20424;-70
2022/09/24 10:36:28;;;;;;;1.98;1.88;;;16.50;99.90;;;;;;5052768;28;20409;-71
2022/09/24 10:39:14;;;;;;;1.70;1.60;;;16.50;99.90;;;;;;5047203;28;20471;-70
2022/09/24 10:41:55;;;;;;;2.30;1.80;;;16.70;99.90;;;;;;5047581;28;20466;-69
2022/09/24 10:44:21;;;;;;;2.20;2.00;;;16.70;99.90;;;;;;5048233;28;20409;-70
2022/09/24 10:47:13;;;;;;;2.15;1.95;;;16.80;99.90;;;;;;5033794;28;20824;-69
2022/09/24 10:50:16;;;;;;;1.70;1.60;;;16.90;99.90;;;;;;5052700;28;20405;-70
2022/09/24 10:53:00;;;;;;;1.50;1.40;;;17.10;99.90;;;;;;5052744;28;20370;-70
2022/09/24 10:55:33;;;;;;;2.95;1.70;;;17.20;99.90;;;;;;5052643;28;20389;-70
2022/09/24 10:58:24;;;;;;;1.60;1.50;;;17.10;99.90;;;;;;5052895;28;20402;-69
2022/09/24 11:01:02;;;;;;;1.77;1.60;;;17.20;99.90;;;;;;5073273;28;20383;-70
2022/09/24 11:04:04;;;;;;;1.67;1.30;;;17.20;99.90;;;;;;5063489;28;20488;-70
2022/09/24 11:06:54;;;;;;;2.10;1.90;;;17.30;99.90;;;;;;5053775;28;20390;-70
2022/09/24 11:09:44;;;;;;;1.65;1.55;;;17.40;99.90;;;;;;5043384;28;20527;-71
2022/09/24 11:12:29;;;;;;;1.60;1.50;;;17.50;99.90;;;;;;5052658;28;20489;-70
2022/09/24 11:15:28;;;;;;;1.40;1.30;;;17.60;99.90;;;;;;5052396;28;20418;-70
2022/09/24 11:18:15;;;;;;;1.85;1.52;;;17.80;99.90;;;;;;5049499;28;20897;-70
2022/09/24 11:20:51;;;;;;;1.60;1.47;;;18.00;99.90;;;;;;5054093;28;20436;-70
2022/09/24 11:23:45;;;;;;;1.88;1.52;;;18.40;99.90;;;;;;5050903;28;20447;-69
2022/09/24 11:26:41;;;;;;;1.60;1.45;;;19.00;99.90;;;;;;5033615;28;20394;-71
2022/09/24 11:29:34;;;;;;;1.40;1.30;;;18.50;99.90;;;;;;5052190;28;20790;-70
2022/09/24 11:32:15;;;;;;;1.58;1.45;;;18.50;99.90;;;;;;5056707;28;20434;-70
2022/09/24 11:34:59;;;;;;;1.77;1.30;;;18.80;99.90;;;;;;5061339;28;20439;-70
2022/09/24 11:37:38;;;;;;;1.50;1.33;;;19.40;99.90;;;;;;5050914;28;20898;-71
2022/09/24 11:40:22;;;;;;;1.50;1.40;;;19.40;99.90;;;;;;5048086;28;20404;-70
2022/09/24 11:43:08;;;;;;;2.10;1.50;;;19.40;99.90;;;;;;5051585;28;20377;-70
2022/09/24 11:45:53;;;;;;;2.50;1.77;;;18.90;99.90;;;;;;5031351;28;20421;-74
2022/09/24 11:48:30;;;;;;;2.22;1.55;;;18.70;99.90;;;;;;5051254;28;20389;-71
2022/09/24 11:51:21;;;;;;;1.47;1.30;;;18.40;99.90;;;;;;5047841;28;20401;-71
2022/09/24 11:54:01;;;;;;;1.33;1.23;;;18.40;99.90;;;;;;5047115;28;20463;-72
2022/09/24 11:56:30;;;;;;;2.30;1.40;;;19.40;99.90;;;;;;5057367;28;20389;-72
2022/09/24 11:59:06;;;;;;;1.30;1.20;;;19.60;99.90;;;;;;5049587;28;20405;-72
2022/09/24 12:01:36;;;;;;;1.80;1.30;;;20.50;99.90;;;;;;5043269;28;20390;-71
2022/09/24 12:04:20;;;;;;;1.40;1.30;;;21.20;99.90;;;;;;5051033;28;20432;-72
2022/09/24 12:06:53;;;;;;;1.80;1.50;;;21.00;99.90;;;;;;5061078;28;20435;-71
2022/09/24 12:09:24;;;;;;;1.98;1.77;;;21.10;99.90;;;;;;5051544;28;20444;-71
2022/09/24 12:12:18;;;;;;;1.58;1.40;;;21.10;99.90;;;;;;5051364;28;20396;-71
2022/09/24 12:15:04;;;;;;;1.40;1.30;;;20.80;99.90;;;;;;5050568;28;20465;-71
2022/09/24 12:17:44;;;;;;;2.00;1.80;;;20.40;99.90;;;;;;5044414;28;20393;-73
2022/09/24 12:20:30;;;;;;;2.00;1.70;;;20.40;99.90;;;;;;5052491;28;20406;-71
2022/09/24 12:23:03;;;;;;;2.10;1.90;;;20.50;99.90;;;;;;5032128;28;20385;-71
2022/09/24 12:25:38;;;;;;;2.35;1.67;;;20.20;99.90;;;;;;5032982;28;20472;-71
2022/09/24 12:28:04;;;;;;;2.20;2.00;;;19.90;99.90;;;;;;5050066;28;20389;-71
2022/09/24 12:33:51;;;;;;;2.00;1.80;;;19.30;99.90;;;;;;5050748;28;20369;-71
2022/09/24 12:36:23;;;;;;;2.30;1.80;;;18.80;99.90;;;;;;5068863;28;20958;-70
2022/09/24 12:39:00;;;;;;;2.00;1.90;;;18.80;99.90;;;;;;5044562;28;20412;-71
2022/09/24 12:41:30;;;;;;;1.70;1.60;;;19.00;99.90;;;;;;5050756;28;20389;-70
2022/09/24 12:44:04;;;;;;;1.80;1.65;;;18.80;99.90;;;;;;5029064;28;20773;-70
2022/09/24 12:46:40;;;;;;;1.70;1.60;;;18.60;99.90;;;;;;5050376;28;20397;-71
2022/09/24 12:49:28;;;;;;;1.50;1.40;;;18.60;99.90;;;;;;5050545;28;20752;-71
2022/09/24 12:51:57;;;;;;;2.50;2.10;;;18.50;99.90;;;;;;5063812;28;20432;-71
2022/09/24 12:54:28;;;;;;;1.90;1.80;;;18.50;99.90;;;;;;5049252;28;20409;-72
2022/09/24 12:57:19;;;;;;;1.80;1.70;;;18.50;99.90;;;;;;5048075;28;20454;-71
2022/09/24 13:00:00;;;;;;;2.05;1.85;;;18.40;99.90;;;;;;5045559;28;20902;-71
2022/09/24 13:02:42;;;;;;;2.00;1.80;;;18.40;99.90;;;;;;5050577;28;20440;-70
2022/09/24 13:05:22;;;;;;;1.75;1.63;;;18.30;99.90;;;;;;5069538;28;20427;-71
2022/09/24 13:08:00;;;;;;;2.60;1.90;;;18.20;99.90;;;;;;5069445;28;20784;-71
2022/09/24 13:10:29;;;;;;;2.20;1.70;;;18.20;99.90;;;;;;5030560;28;20411;-72
2022/09/24 13:12:58;;;;;;;1.90;1.80;;;18.20;99.90;;;;;;5030178;28;20857;-72
2022/09/24 13:15:32;;;;;;;2.17;1.90;;;18.20;99.90;;;;;;5030284;28;20391;-72
2022/09/24 13:18:05;;;;;;;2.00;1.60;;;18.20;99.90;;;;;;5030472;28;20386;-71
2022/09/24 13:20:32;;;;;;;2.50;2.00;;;18.30;99.90;;;;;;5030667;28;20390;-71
2022/09/24 13:23:21;;;;;;;2.20;2.00;;;18.10;99.90;;;;;;5042437;28;20403;-71
2022/09/24 13:25:57;;;;;;;2.17;1.90;;;18.20;99.90;;;;;;5038404;28;20404;-72
2022/09/24 13:28:26;;;;;;;2.07;1.87;;;18.30;99.90;;;;;;5048584;28;20407;-72